Harrah, WA (98933)

9:33 AM PDT on October 02, 2014 (GMT -0700)
Harrah South | Change Station
CLOSE
Current Station
Personal Weather Station
Location: Harrah, WA
Elevation: 827 ft
Nearby Weather Stations

Elev 827 ft 46.40 °N, 120.54 °W | Updated 7 seconds ago

Clear
Clear
86.8 °F
Feels Like 84 °F
N
2.5
Wind Variable Wind from NNW
Gusts 3.6 mph

Today
High -- | Low -- °F
--% Chance of Precip.
Yesterday
High -- | Low -- °F
Precip. -- in
7:02 AM 6:39 PM
First Quarter, 60% visible
Pressure 30.27 in
Visibility 10.0 miles
Clouds Clear
Heat Index 84 °F
Dew Point 47 °F
Humidity 26%
Rainfall 0.00 in
Snow Depth 0 in , 0 in , 0 in
UV 1 out of 12
Pollen 1.80 out of 12
Air Quality Not available.
Flu Activity Not available.
METAR KYKM 021553Z 26005KT 10SM CLR 12/03 A3026 RMK AO2 SLP249 T01220033

More Conditions Fewer Conditions

Pressure 30.27 in
Visibility 10.0 miles
Clouds Clear
Heat Index 84 °F
Dew Point 47 °F
Humidity 26%
Rainfall 0.00 in
Snow Depth 0 in , 0 in , 0 in
UV 1 out of 12
Pollen 1.80 out of 12
Air Quality Not available.
Flu Activity Not available.
METAR KYKM 021553Z 26005KT 10SM CLR 12/03 A3026 RMK AO2 SLP249 T01220033

More Conditions Fewer Conditions

10-Day Weather Forecast

Almanac

Astronomy

Oct. 02, 2014 Rise Set
Actual Time 7:02 AM PDT 6:39 PM PDT
Civil Twilight 6:32 AM PDT 7:09 PM PDT
Nautical Twilight 5:57 AM PDT 7:44 PM PDT
Astronomical Twilight 5:21 AM PDT 8:19 PM PDT
Moon 3:08 PM PDT 12:05 AM PDT
Length of Visible Light 12h 37m
Length of Day
11h 37m
Tomorrow will be 3m 15s shorter.
First Quarter, 60% of the Moon is Illuminated
Today
First Quarter
Oct 8
Full
Oct 15
Last Quarter
Oct 23
New
Oct 30
First Quarter

Today's Extremes

State Highs State Lows

Community

WunderPhotos

Upload Photos

1,758,294 photos uploaded!

WunderBlogs® & News

Nearby

Snow Depth

Station Depth Elevation
Sasse Ridge 0 in 4200 ft
Rainy Pass 0 in 4780 ft
Spruce Springs 0 in 5700 ft
Upper Wheeler 0 in 4400 ft
Mount Gardner 0 in 3000 ft

Earthquake Activity

City Distance Mag. Time & Date
No recent earthquake activity has been reported nearby.
Minimum magnitude displayed is 2.5.

Coastal Water Temperatures

Place Temperature
No Stations Reporting

Nearby Weather Stations